Time;durP1;ratioP1;P1;durP2;ratioP2;P2;SDS_P1;SDS_P2;PMS_P1;PMS_P2;Temp;Humidity;BMP_temperature;BMP_pressure;BME280_temperature;BME280_humidity;BME280_pressure;Samples;Min_cycle;Max_cycle;Signal;HPM_P1;HPM_P2
2022/08/19 00:00:07;;;;;;;15.53;9.95;;;;;;;25.71;63.80;100141.64;5074086;57;1141231;-63
2022/08/19 00:05:17;;;;;;;34.18;10.60;;;;;;;25.63;64.49;100134.36;5154188;57;1139090;-64
2022/08/19 00:10:24;;;;;;;12.05;9.75;;;;;;;25.52;64.60;100122.34;5144655;57;1141179;-65
2022/08/19 00:15:29;;;;;;;15.20;10.88;;;;;;;25.45;64.90;100121.61;5070404;58;1139302;-61
2022/08/19 00:20:36;;;;;;;11.45;9.25;;;;;;;25.42;65.37;100112.59;5070263;58;1141209;-63
2022/08/19 00:25:41;;;;;;;20.75;10.55;;;;;;;25.40;65.50;100121.45;5009036;58;1139093;-63
2022/08/19 00:30:47;;;;;;;15.23;9.83;;;;;;;25.36;65.68;100127.84;4952809;59;1141225;-63
2022/08/19 00:35:55;;;;;;;17.90;10.18;;;;;;;25.33;66.37;100120.72;4899773;60;1139003;-65
2022/08/19 00:41:01;;;;;;;15.23;10.32;;;;;;;25.22;66.69;100119.03;4948574;58;1141401;-62
2022/08/19 00:46:07;;;;;;;21.50;11.18;;;;;;;25.16;66.73;100115.89;4968154;58;1141230;-64
2022/08/19 00:51:13;;;;;;;22.35;10.48;;;;;;;25.14;67.18;100121.22;4985223;57;1141157;-64
2022/08/19 00:56:19;;;;;;;17.62;9.93;;;;;;;25.07;66.98;100121.80;5033239;58;1141176;-66
2022/08/19 01:01:25;;;;;;;16.07;10.32;;;;;;;25.03;66.85;100126.02;5064011;57;1138998;-62
2022/08/19 01:06:33;;;;;;;14.10;9.90;;;;;;;25.01;67.24;100119.47;5110544;57;1141143;-60
2022/08/19 01:11:42;;;;;;;14.60;10.13;;;;;;;25.02;67.53;100116.24;5117442;57;1139099;-61
2022/08/19 01:16:48;;;;;;;16.37;9.90;;;;;;;24.99;67.61;100120.73;5116703;57;1141143;-60
2022/08/19 01:22:08;;;;;;;15.10;10.70;;;;;;;24.95;68.09;100105.47;5080301;58;1139422;-61
2022/08/19 01:27:14;;;;;;;15.88;9.25;;;;;;;24.90;68.29;100099.33;5114761;58;1143277;-65
2022/08/19 01:32:20;;;;;;;12.95;9.85;;;;;;;24.85;67.93;100090.25;4893858;59;1141199;-61
2022/08/19 01:37:26;;;;;;;21.83;9.90;;;;;;;24.83;67.99;100095.05;4957478;58;1141178;-61
2022/08/19 01:42:32;;;;;;;12.98;9.50;;;;;;;24.77;68.02;100097.27;4977352;59;1141070;-62
2022/08/19 01:47:39;;;;;;;20.43;9.25;;;;;;;24.71;68.16;100100.36;5067470;57;1141102;-64
2022/08/19 01:52:45;;;;;;;15.48;9.55;;;;;;;24.71;68.15;100101.71;5080002;56;1141077;-63
2022/08/19 01:57:55;;;;;;;11.45;10.08;;;;;;;24.66;68.33;100098.00;5077607;57;1141030;-64
2022/08/19 02:03:01;;;;;;;13.08;9.55;;;;;;;24.59;68.57;100089.97;5076602;57;1143192;-62
2022/08/19 02:08:08;;;;;;;22.98;11.20;;;;;;;24.52;68.63;100084.59;5075671;58;1141102;-63
2022/08/19 02:13:14;;;;;;;10.72;9.28;;;;;;;24.51;68.94;100083.46;5092289;56;1143341;-62
2022/08/19 02:18:20;;;;;;;28.60;10.25;;;;;;;24.48;69.04;100077.97;5154687;57;1141461;-64
2022/08/19 02:23:27;;;;;;;17.20;10.80;;;;;;;24.39;69.36;100060.38;5150734;57;1143476;-62
2022/08/19 02:28:33;;;;;;;14.75;10.20;;;;;;;24.35;69.79;100063.73;5150378;57;1143187;-61
2022/08/19 02:33:39;;;;;;;13.72;10.98;;;;;;;24.25;69.72;100049.36;5129835;57;1143189;-65
2022/08/19 02:38:46;;;;;;;15.00;10.58;;;;;;;24.19;70.35;100042.09;5074160;57;1143223;-62
2022/08/19 02:43:52;;;;;;;31.48;10.30;;;;;;;24.11;70.15;100035.09;5011913;58;1143187;-64
2022/08/19 02:49:01;;;;;;;23.00;10.43;;;;;;;23.97;70.20;100034.05;5126477;57;1143188;-61
2022/08/19 02:54:09;;;;;;;11.95;10.82;;;;;;;23.90;70.75;100021.92;5065157;58;1143282;-64
2022/08/19 02:59:15;;;;;;;17.15;10.40;;;;;;;23.92;71.27;100020.36;5061058;58;1143217;-65
2022/08/19 03:04:22;;;;;;;15.30;10.98;;;;;;;23.91;71.49;100029.51;4950768;59;1143268;-63
2022/08/19 03:09:29;;;;;;;20.55;11.20;;;;;;;23.91;71.83;100037.09;4901971;60;1143262;-65
2022/08/19 03:14:36;;;;;;;16.23;11.20;;;;;;;23.90;71.89;100043.53;4975389;57;1143177;-64
2022/08/19 03:19:43;;;;;;;23.10;11.38;;;;;;;23.90;72.07;100044.88;4938452;58;1143249;-62
2022/08/19 03:24:48;;;;;;;13.35;11.33;;;;;;;23.87;72.44;100043.96;4889963;59;1143251;-64
2022/08/19 03:29:54;;;;;;;24.40;11.65;;;;;;;23.84;72.46;100042.52;4972175;59;1143507;-65
2022/08/19 03:35:00;;;;;;;14.38;10.85;;;;;;;23.85;72.64;100037.94;5029392;58;1143513;-65
2022/08/19 03:40:08;;;;;;;19.55;10.70;;;;;;;23.81;72.62;100017.32;5019581;58;1143179;-62
2022/08/19 03:45:13;;;;;;;20.65;11.12;;;;;;;23.75;72.63;100032.20;5164495;56;1143412;-61
2022/08/19 03:50:19;;;;;;;21.50;10.58;;;;;;;23.71;72.75;100036.36;5164511;56;1143446;-62
2022/08/19 03:55:26;;;;;;;46.05;11.45;;;;;;;23.66;72.62;100038.38;5140786;56;1143219;-65
2022/08/19 04:00:33;;;;;;;17.90;10.48;;;;;;;23.60;72.83;100035.19;5072648;57;1143336;-65
2022/08/19 04:05:39;;;;;;;30.80;11.57;;;;;;;23.55;73.06;100026.89;4927131;58;1143212;-62
2022/08/19 04:10:45;;;;;;;21.07;10.80;;;;;;;23.39;73.58;100022.78;4927349;58;1143309;-62
2022/08/19 04:15:51;;;;;;;29.95;11.25;;;;;;;23.40;73.95;100017.69;4943004;58;1143233;-63
2022/08/19 04:20:57;;;;;;;13.88;10.48;;;;;;;23.34;73.99;100018.56;4936303;58;1143230;-64
2022/08/19 04:26:04;;;;;;;16.10;10.95;;;;;;;23.34;74.33;100025.31;4930402;58;1143481;-64
2022/08/19 04:31:20;;;;;;;25.52;10.35;;;;;;;23.28;74.36;100016.71;4938211;58;1141488;-61
2022/08/19 04:36:29;;;;;;;14.28;11.50;;;;;;;23.27;74.95;100028.55;4966768;58;1141118;-62
2022/08/19 04:47:00;;;;;;;18.80;11.20;;;;;;;23.35;75.09;100023.44;5018770;58;1141171;-65
2022/08/19 04:52:05;;;;;;;16.97;10.05;;;;;;;23.35;75.52;100023.44;5031628;58;1141315;-61
2022/08/19 04:57:12;;;;;;;19.15;10.75;;;;;;;23.36;75.82;100028.63;5018236;58;1141243;-64
2022/08/19 05:02:18;;;;;;;18.30;10.55;;;;;;;23.42;75.95;100034.50;5032906;58;1141420;-64
2022/08/19 05:07:24;;;;;;;14.47;9.43;;;;;;;23.49;75.76;100036.67;5036027;58;1141348;-65
2022/08/19 05:12:30;;;;;;;26.05;10.48;;;;;;;23.58;75.65;100039.14;5039658;58;1138930;-65
2022/08/19 05:17:36;;;;;;;17.50;10.80;;;;;;;23.65;75.67;100040.77;4991353;59;1141283;-65
2022/08/19 05:22:46;;;;;;;22.90;10.28;;;;;;;23.78;75.39;100033.12;4983384;59;1141439;-64
2022/08/19 05:27:52;;;;;;;14.28;9.98;;;;;;;23.85;75.16;100029.84;5048349;58;1139142;-63
2022/08/19 05:32:58;;;;;;;17.42;9.24;;;;;;;23.92;75.03;100040.09;5045230;58;1141083;-65
2022/08/19 05:38:04;;;;;;;25.97;10.80;;;;;;;24.06;74.95;100033.56;5122777;57;1141158;-63
2022/08/19 05:43:10;;;;;;;13.73;10.47;;;;;;;24.16;74.47;100029.84;5053617;58;1143118;-61
2022/08/19 05:48:20;;;;;;;16.60;10.53;;;;;;;24.17;74.17;100022.56;4991404;58;1143395;-64
2022/08/19 05:53:24;;;;;;;28.50;11.60;;;;;;;24.16;74.12;100016.84;5015541;58;1143241;-63
2022/08/19 05:58:29;;;;;;;17.30;10.60;;;;;;;24.26;74.20;100013.19;5005156;58;1143226;-64
2022/08/19 06:03:37;;;;;;;23.87;10.60;;;;;;;24.43;74.09;100004.00;5130464;57;1143285;-61
2022/08/19 06:08:42;;;;;;;26.97;10.25;;;;;;;24.62;73.65;99997.55;5126796;56;1143250;-63
2022/08/19 06:13:53;;;;;;;23.00;11.03;;;;;;;24.68;73.09;99990.44;5038441;58;1141110;-65
2022/08/19 06:19:00;;;;;;;21.48;9.93;;;;;;;24.74;73.12;99980.92;5155431;57;1141197;-64
2022/08/19 06:24:10;;;;;;;15.55;9.15;;;;;;;24.90;72.70;99988.97;5055421;58;1139051;-65
2022/08/19 06:29:19;;;;;;;16.42;9.35;;;;;;;25.09;72.26;99992.50;5137308;57;1139090;-64
2022/08/19 06:34:27;;;;;;;16.20;8.85;;;;;;;25.24;71.91;100003.25;5070562;56;1139073;-62
2022/08/19 06:39:38;;;;;;;15.03;9.65;;;;;;;25.49;70.98;99999.09;5077934;58;1141215;-62
2022/08/19 06:44:47;;;;;;;14.15;9.93;;;;;;;25.65;69.81;99984.11;5057103;57;1138933;-64
2022/08/19 06:50:04;;;;;;;22.52;9.63;;;;;;;25.80;69.46;99968.27;5049773;57;1138972;-61
2022/08/19 06:55:10;;;;;;;16.67;9.90;;;;;;;25.98;68.12;99974.11;5186227;56;1139024;-63
2022/08/19 07:00:16;;;;;;;13.40;10.10;;;;;;;26.10;67.59;99983.11;5220200;56;1139188;-62
2022/08/19 07:05:22;;;;;;;18.92;9.73;;;;;;;26.17;66.86;99982.45;5118592;57;1141138;-63
2022/08/19 07:10:31;;;;;;;17.37;8.30;;;;;;;26.34;66.65;99991.29;5072522;57;1139066;-63
2022/08/19 07:15:38;;;;;;;18.42;10.23;;;;;;;26.51;66.80;99978.16;5146820;56;1139033;-63
2022/08/19 07:20:44;;;;;;;11.80;9.20;;;;;;;26.69;65.38;99981.28;5164611;56;1141183;-63
2022/08/19 07:25:50;;;;;;;20.08;8.55;;;;;;;26.83;64.90;99985.92;5092997;57;1139068;-62
2022/08/19 07:30:56;;;;;;;17.57;9.33;;;;;;;26.95;64.31;99975.36;5230789;56;1139050;-64
2022/08/19 07:36:02;;;;;;;11.88;9.20;;;;;;;27.10;64.37;99982.17;5193897;56;1139095;-64
2022/08/19 07:41:09;;;;;;;14.35;9.45;;;;;;;27.30;63.49;99986.67;5166579;56;1139117;-63
2022/08/19 07:46:16;;;;;;;15.35;8.90;;;;;;;27.35;63.03;99993.54;5129257;57;1138999;-63
2022/08/19 07:51:23;;;;;;;16.02;9.33;;;;;;;27.44;63.73;99996.72;4984059;58;1139165;-65
2022/08/19 07:56:29;;;;;;;12.40;8.68;;;;;;;27.71;62.38;100005.13;4980757;59;1139067;-65
2022/08/19 08:01:35;;;;;;;18.87;9.53;;;;;;;27.94;61.29;100009.94;5029832;58;1141397;-65
2022/08/19 08:12:17;;;;;;;14.83;9.05;;;;;;;28.01;60.92;100028.26;5008342;58;1139033;-64
2022/08/19 08:17:27;;;;;;;13.50;8.98;;;;;;;28.08;60.25;100028.11;5049545;58;1139125;-61
2022/08/19 08:27:59;;;;;;;11.80;9.15;;;;;;;28.33;58.42;100025.84;5060208;57;1138992;-64
2022/08/19 08:33:04;;;;;;;15.18;8.98;;;;;;;28.49;58.03;100012.48;5059770;58;1139062;-66
2022/08/19 08:38:11;;;;;;;16.25;9.70;;;;;;;28.50;57.25;100013.59;5051417;57;1139092;-62
2022/08/19 08:43:27;;;;;;;13.38;8.73;;;;;;;28.51;57.42;100017.14;5061819;57;1139100;-66
2022/08/19 08:48:47;;;;;;;15.78;8.93;;;;;;;28.74;58.68;99999.78;5106761;57;1137058;-65
2022/08/19 08:53:53;;;;;;;18.43;10.00;;;;;;;28.98;56.13;99987.64;5141460;57;1139113;-66
2022/08/19 08:59:12;;;;;;;12.18;9.53;;;;;;;29.11;55.70;99985.08;5151546;57;1141207;-62
2022/08/19 09:04:18;;;;;;;19.30;10.35;;;;;;;29.26;55.26;99987.98;5086158;57;1139004;-64
2022/08/19 09:09:43;;;;;;;12.65;10.15;;;;;;;29.24;55.87;99993.69;5047139;58;1141143;-60
2022/08/19 09:15:02;;;;;;;13.48;7.95;;;;;;;29.22;55.48;99997.20;5031620;57;1141181;-62
2022/08/19 09:20:24;;;;;;;15.95;10.18;;;;;;;29.26;56.52;99988.81;5014914;57;1139034;-64
2022/08/19 09:25:31;;;;;;;15.05;8.60;;;;;;;29.40;55.15;99993.36;5031884;58;1141332;-63
2022/08/19 09:30:43;;;;;;;16.15;8.83;;;;;;;29.51;54.64;99996.47;4987261;59;1138656;-64
2022/08/19 09:35:49;;;;;;;19.43;9.30;;;;;;;29.68;54.90;99986.84;4980001;59;1139189;-61
2022/08/19 09:40:55;;;;;;;10.48;9.38;;;;;;;29.92;54.91;99995.54;4977209;59;1139575;-65
2022/08/19 09:46:01;;;;;;;14.13;9.90;;;;;;;30.19;52.51;99984.08;4987332;59;1139125;-62
2022/08/19 09:51:15;;;;;;;16.62;9.93;;;;;;;30.33;52.10;99992.63;4899911;59;1139387;-66
2022/08/19 09:56:23;;;;;;;15.03;8.88;;;;;;;30.42;52.17;100000.06;4892646;59;1139052;-65
2022/08/19 10:01:31;;;;;;;27.85;8.80;;;;;;;30.65;52.23;99999.44;4903364;59;1141223;-64
2022/08/19 10:06:39;;;;;;;17.87;8.60;;;;;;;30.90;50.30;99998.22;4959981;59;1139071;-65
2022/08/19 10:11:49;;;;;;;15.95;10.55;;;;;;;31.07;50.80;99988.47;4944620;58;1139355;-65
2022/08/19 10:16:56;;;;;;;31.35;10.43;;;;;;;31.11;49.56;99978.69;5033047;58;1141172;-65
2022/08/19 10:22:06;;;;;;;18.37;9.63;;;;;;;31.23;51.01;99969.71;4966976;57;1141373;-64
2022/08/19 10:27:13;;;;;;;;;;;;;;;31.52;50.02;99982.91;4910223;57;1139281;-62
2022/08/19 10:32:18;;;;;;;16.52;8.78;;;;;;;31.57;48.07;99979.66;4988338;57;972184;-64
2022/08/19 10:37:24;;;;;;;12.58;8.68;;;;;;;31.56;48.23;99975.27;4922792;58;1134814;-63
2022/08/19 10:42:31;;;;;;;15.30;8.50;;;;;;;31.63;47.72;99968.16;5126553;57;1137183;-64
2022/08/19 10:47:37;;;;;;;17.23;9.40;;;;;;;31.85;47.94;99975.63;5071179;57;1136960;-63
2022/08/19 10:52:46;;;;;;;16.17;9.58;;;;;;;32.02;47.59;99976.73;5126474;57;1137201;-66
2022/08/19 10:57:52;;;;;;;21.05;9.83;;;;;;;32.14;46.80;99957.56;5156517;57;1136993;-63
2022/08/19 11:02:58;;;;;;;27.27;10.70;;;;;;;32.39;45.78;99955.37;5090164;57;1136231;-66
2022/08/19 11:08:07;;;;;;;21.20;10.28;;;;;;;32.56;45.91;99941.92;4989639;58;1139148;-65
2022/08/19 11:13:12;;;;;;;17.30;8.90;;;;;;;32.77;45.51;99932.59;4991684;58;1139037;-65
2022/08/19 11:18:18;;;;;;;18.30;8.75;;;;;;;32.91;45.53;99936.37;4994906;59;1137215;-67
2022/08/19 11:23:24;;;;;;;17.55;7.87;;;;;;;33.16;44.96;99930.77;4948004;59;1137215;-66
2022/08/19 11:28:29;;;;;;;16.55;8.10;;;;;;;33.38;42.89;99930.95;5165527;57;1136932;-63
2022/08/19 11:33:35;;;;;;;8.53;7.55;;;;;;;33.49;41.24;99927.86;5165333;57;1136400;-62
2022/08/19 11:38:41;;;;;;;15.70;8.15;;;;;;;33.54;41.98;99936.61;5165443;57;1134873;-65
2022/08/19 11:43:47;;;;;;;18.23;8.30;;;;;;;33.63;40.72;99927.22;5143814;57;1136985;-64
2022/08/19 11:48:54;;;;;;;8.25;7.25;;;;;;;33.66;40.37;99932.95;5131369;57;1136994;-63
2022/08/19 11:54:01;;;;;;;15.43;7.45;;;;;;;33.63;39.88;99932.15;5054481;57;1135199;-63
2022/08/19 11:59:07;;;;;;;14.03;6.58;;;;;;;33.81;40.91;99931.50;5056090;57;1134902;-67
2022/08/19 12:04:14;;;;;;;15.88;7.10;;;;;;;34.01;38.60;99929.70;5045616;58;1134940;-64
2022/08/19 12:09:21;;;;;;;9.73;6.65;;;;;;;34.16;38.34;99938.61;5053910;58;1139000;-63
2022/08/19 12:14:29;;;;;;;10.13;6.22;;;;;;;34.34;37.20;99937.10;4957370;58;1137179;-64
2022/08/19 12:19:36;;;;;;;6.23;4.60;;;;;;;34.63;36.17;99948.61;4800516;60;1139127;-66
2022/08/19 12:24:43;;;;;;;13.93;6.28;;;;;;;34.74;35.27;99936.38;4991465;57;1137123;-66
2022/08/19 12:29:48;;;;;;;17.27;6.20;;;;;;;34.83;34.68;99942.33;5078993;58;1139046;-65
2022/08/19 12:34:54;;;;;;;30.88;6.53;;;;;;;34.85;33.83;99940.11;5079087;57;1139060;-66
2022/08/19 12:40:01;;;;;;;7.40;5.40;;;;;;;34.94;32.99;99947.73;5023626;58;1138847;-67
2022/08/19 12:45:10;;;;;;;8.48;5.60;;;;;;;35.05;34.35;99946.48;5044617;57;1136979;-66
2022/08/19 12:50:15;;;;;;;7.15;5.33;;;;;;;35.13;32.44;99960.95;5069557;57;1136940;-65
2022/08/19 12:55:21;;;;;;;13.50;5.30;;;;;;;35.13;32.70;99961.78;5180494;56;1136990;-64
2022/08/19 13:00:27;;;;;;;13.50;5.97;;;;;;;35.05;32.93;99949.23;5216731;56;1139004;-66
2022/08/19 13:05:35;;;;;;;16.62;6.45;;;;;;;35.07;33.53;99955.25;5252036;56;1139108;-65
2022/08/19 13:10:42;;;;;;;9.68;6.87;;;;;;;35.09;33.22;99950.28;5231720;55;1139020;-66
2022/08/19 13:15:48;;;;;;;11.40;5.25;;;;;;;34.99;34.43;99950.39;5143256;57;1137079;-66
2022/08/19 13:20:54;;;;;;;7.58;5.60;;;;;;;35.00;33.32;99958.90;5071876;58;1139205;-64
2022/08/19 13:26:04;;;;;;;12.43;4.75;;;;;;;34.81;32.80;99965.74;5054744;58;1137158;-67
2022/08/19 13:36:35;;;;;;;5.83;4.50;;;;;;;34.39;32.66;99966.42;5134186;57;1139278;-62
2022/08/19 13:41:47;;;;;;;14.80;5.03;;;;;;;34.24;33.02;99968.17;5130617;57;1137040;-65
2022/08/19 13:46:53;;;;;;;10.23;5.53;;;;;;;34.11;34.21;99977.08;5168109;55;1139109;-63
2022/08/19 13:51:59;;;;;;;9.28;5.40;;;;;;;34.04;34.94;99964.80;5184590;56;1139029;-61
2022/08/19 13:57:05;;;;;;;17.65;6.03;;;;;;;34.28;35.69;99964.33;5135824;57;1136977;-62
2022/08/19 14:02:11;;;;;;;12.98;6.05;;;;;;;34.55;35.23;99955.55;5116059;57;1139006;-64
2022/08/19 14:07:17;;;;;;;7.62;6.70;;;;;;;34.53;35.22;99948.97;5153801;57;1139025;-66
2022/08/19 14:12:23;;;;;;;12.47;7.72;;;;;;;34.38;36.30;99949.67;5123663;57;1137029;-65
2022/08/19 14:17:29;;;;;;;16.93;8.05;;;;;;;34.21;39.07;99963.28;5152311;57;1139075;-63
2022/08/19 14:22:36;;;;;;;14.50;9.68;;;;;;;34.02;39.86;99969.76;5152162;57;1138979;-63
2022/08/19 14:27:42;;;;;;;15.30;8.80;;;;;;;33.79;40.58;99968.55;5125645;57;1138884;-65
2022/08/19 14:32:48;;;;;;;11.78;8.58;;;;;;;33.61;40.99;99965.10;5151962;57;1139021;-66
2022/08/19 14:37:54;;;;;;;19.98;9.58;;;;;;;33.62;40.97;99973.02;5135437;57;1138958;-64
2022/08/19 14:43:04;;;;;;;19.87;9.45;;;;;;;33.44;41.01;99972.33;5069485;58;1138994;-66
2022/08/19 14:48:10;;;;;;;13.10;8.90;;;;;;;33.28;41.89;99979.00;5070762;58;1137016;-64
2022/08/19 14:53:18;;;;;;;12.45;9.35;;;;;;;33.29;41.76;99987.49;5100239;57;1136327;-66
2022/08/19 14:58:23;;;;;;;19.48;9.80;;;;;;;33.23;41.75;99989.95;5070604;57;1136922;-65
2022/08/19 15:03:31;;;;;;;12.23;9.03;;;;;;;33.22;42.10;99986.93;5141457;57;1136971;-66
2022/08/19 15:08:40;;;;;;;18.98;10.55;;;;;;;33.24;42.30;99992.95;5092514;57;1137053;-62
2022/08/19 15:13:46;;;;;;;23.17;9.80;;;;;;;33.23;41.92;99998.16;5117697;57;1139138;-65
2022/08/19 15:18:56;;;;;;;13.80;10.78;;;;;;;33.11;42.07;99997.12;5105577;57;1136987;-65
2022/08/19 15:24:02;;;;;;;15.30;10.63;;;;;;;32.99;42.36;99987.86;5122582;57;1139035;-63
2022/08/19 15:29:08;;;;;;;18.25;12.23;;;;;;;32.71;42.68;99989.26;5087521;57;1139155;-64
2022/08/19 15:34:13;;;;;;;20.15;13.60;;;;;;;32.54;43.09;99990.69;5112046;57;1138968;-66
2022/08/19 15:39:20;;;;;;;15.18;9.78;;;;;;;32.49;43.47;99981.38;5111326;57;1139048;-66
2022/08/19 15:44:26;;;;;;;14.63;10.35;;;;;;;32.48;43.59;99983.02;5069451;57;1136945;-64
2022/08/19 15:49:32;;;;;;;14.33;10.70;;;;;;;32.58;43.59;99982.17;5088860;57;1139084;-65
2022/08/19 15:54:38;;;;;;;11.63;9.55;;;;;;;32.43;43.54;99983.84;5144985;57;1138993;-65
2022/08/19 16:10:37;;;;;;;15.55;10.88;;;;;;;31.84;45.14;99990.38;5029839;57;1141210;-63
2022/08/19 16:15:43;;;;;;;27.52;10.70;;;;;;;31.69;45.50;99981.61;4979334;58;1141071;-65
2022/08/19 16:20:49;;;;;;;18.40;10.72;;;;;;;31.57;45.81;99981.56;5043464;57;1141585;-62
2022/08/19 16:25:55;;;;;;;16.40;12.55;;;;;;;31.49;46.14;99987.00;5074917;57;1141121;-66
2022/08/19 16:31:01;;;;;;;12.07;9.30;;;;;;;31.32;46.40;99992.69;5033125;57;1141288;-64
2022/08/19 16:36:07;;;;;;;10.48;9.58;;;;;;;31.23;46.93;99982.55;5014051;58;1139149;-62
2022/08/19 16:41:14;;;;;;;12.13;9.45;;;;;;;31.07;46.98;100000.21;5071910;56;1139474;-63
2022/08/19 16:46:22;;;;;;;9.73;8.60;;;;;;;30.96;47.02;99999.89;5063665;57;1141128;-63
2022/08/19 16:51:27;;;;;;;17.27;9.63;;;;;;;30.81;47.40;100008.55;5070655;57;1136911;-64
2022/08/19 16:56:36;;;;;;;13.18;9.95;;;;;;;30.67;47.78;100016.38;5064025;57;1141124;-62
2022/08/19 17:01:42;;;;;;;9.75;8.75;;;;;;;30.58;48.04;100027.50;5142205;56;1141386;-65
2022/08/19 17:06:48;;;;;;;14.47;9.63;;;;;;;30.56;48.09;100033.22;5221417;55;1138963;-62
2022/08/19 17:11:53;;;;;;;11.10;9.75;;;;;;;30.43;48.16;100035.83;5221123;55;1141120;-63
2022/08/19 17:17:00;;;;;;;11.20;8.50;;;;;;;30.32;48.54;100042.29;5229713;55;1141167;-64
2022/08/19 17:22:05;;;;;;;13.65;8.83;;;;;;;30.18;48.94;100042.44;5138112;56;1141198;-65
2022/08/19 17:27:11;;;;;;;16.57;10.53;;;;;;;29.99;49.69;100041.16;5206326;56;1141149;-65
2022/08/19 17:32:18;;;;;;;13.90;10.90;;;;;;;29.88;49.97;100051.66;5151568;57;1143270;-64
2022/08/19 17:37:24;;;;;;;16.00;12.37;;;;;;;29.85;50.16;100054.36;5150013;56;1143174;-66
2022/08/19 17:42:30;;;;;;;17.98;14.23;;;;;;;29.63;51.87;100058.50;5159646;56;1143250;-65
2022/08/19 17:47:37;;;;;;;21.12;14.80;;;;;;;29.42;52.65;100070.76;5245228;55;1143140;-64
2022/08/19 17:52:43;;;;;;;25.65;15.68;;;;;;;29.29;53.17;100079.56;5215259;55;1143144;-64
2022/08/19 17:57:50;;;;;;;22.45;14.93;;;;;;;29.12;53.37;100090.22;5210055;56;1143425;-65
2022/08/19 18:03:01;;;;;;;17.02;15.08;;;;;;;28.99;54.16;100092.22;5199780;55;1143491;-63
2022/08/19 18:08:08;;;;;;;18.97;15.83;;;;;;;28.91;53.87;100083.64;5103363;56;1143459;-64
2022/08/19 18:13:14;;;;;;;23.55;15.72;;;;;;;28.93;53.82;100080.13;5027624;57;1143328;-65
2022/08/19 18:18:20;;;;;;;18.40;14.25;;;;;;;28.89;53.99;100089.86;5107839;56;1143338;-63
2022/08/19 18:23:25;;;;;;;25.20;15.32;;;;;;;28.81;54.27;100095.20;5023623;57;1143124;-65
2022/08/19 18:28:32;;;;;;;21.93;14.18;;;;;;;28.75;54.44;100101.60;5084703;56;1143359;-65
2022/08/19 18:33:38;;;;;;;17.82;15.65;;;;;;;28.66;54.75;100100.38;5018108;57;1143311;-63
2022/08/19 18:49:33;;;;;;;21.85;16.93;;;;;;;28.29;55.39;100105.45;5054486;58;1141084;-65
2022/08/19 18:54:40;;;;;;;17.47;14.77;;;;;;;28.16;55.70;100104.37;5054599;58;1141111;-63
2022/08/19 18:59:47;;;;;;;17.27;15.48;;;;;;;28.05;56.34;100107.45;5090719;56;1141185;-65
2022/08/19 19:04:54;;;;;;;20.25;16.65;;;;;;;28.00;56.38;100103.26;5235813;55;1141125;-67
2022/08/19 19:10:00;;;;;;;19.02;14.73;;;;;;;27.91;56.61;100108.27;5188948;55;1141128;-65
2022/08/19 19:15:06;;;;;;;23.38;17.12;;;;;;;27.78;57.10;100103.66;5202677;55;1141099;-65
2022/08/19 19:20:12;;;;;;;22.98;16.07;;;;;;;27.72;57.50;100119.55;5217249;56;1141087;-63
2022/08/19 19:25:18;;;;;;;24.77;16.57;;;;;;;27.67;57.72;100125.70;5176217;55;1141021;-64
2022/08/19 19:30:29;;;;;;;22.77;17.37;;;;;;;27.60;57.86;100120.42;5155815;55;1141241;-64
2022/08/19 19:35:33;;;;;;;27.52;18.42;;;;;;;27.58;58.09;100122.55;5205688;55;1141136;-65
2022/08/19 19:40:39;;;;;;;20.27;18.05;;;;;;;27.64;58.19;100131.11;5106130;56;1139047;-63
2022/08/19 19:45:45;;;;;;;27.48;19.42;;;;;;;27.64;58.18;100134.36;4998006;57;1139019;-63
2022/08/19 19:50:54;;;;;;;26.17;19.48;;;;;;;27.62;58.39;100132.41;5102867;56;1143178;-65
2022/08/19 19:56:01;;;;;;;26.20;20.97;;;;;;;27.58;58.62;100134.77;5033768;58;1143227;-63
2022/08/19 20:01:11;;;;;;;26.17;20.43;;;;;;;27.47;58.94;100138.31;5194964;56;1143210;-62
2022/08/19 20:06:18;;;;;;;27.93;20.52;;;;;;;27.42;59.07;100136.84;5242915;56;1143444;-65
2022/08/19 20:11:32;;;;;;;31.68;21.77;;;;;;;27.34;59.20;100137.22;5219744;56;1143434;-63
2022/08/19 20:16:42;;;;;;;31.90;21.45;;;;;;;27.31;59.48;100141.76;5124528;56;1143525;-64
2022/08/19 20:21:50;;;;;;;29.92;20.92;;;;;;;27.18;59.83;100140.65;5080970;57;1143212;-65
2022/08/19 20:26:55;;;;;;;27.60;21.75;;;;;;;27.05;60.34;100149.00;5080088;57;1143369;-66
2022/08/19 20:32:00;;;;;;;27.70;23.50;;;;;;;26.89;60.88;100155.92;5086818;57;1143400;-65
2022/08/19 20:37:07;;;;;;;42.67;24.70;;;;;;;26.84;61.31;100160.72;5108063;57;1143178;-65
2022/08/19 20:42:14;;;;;;;33.02;24.15;;;;;;;26.83;61.81;100172.63;5098815;56;1143210;-62
2022/08/19 20:47:20;;;;;;;29.25;23.85;;;;;;;26.79;62.01;100175.50;5045194;57;1143249;-65
2022/08/19 20:52:25;;;;;;;34.23;22.62;;;;;;;26.73;62.46;100185.13;5021682;57;1143208;-64
2022/08/19 20:57:32;;;;;;;30.75;24.25;;;;;;;26.70;62.63;100181.52;4983882;58;1143475;-63
2022/08/19 21:02:38;;;;;;;35.68;26.65;;;;;;;26.67;63.01;100177.90;4857106;60;1143444;-65
2022/08/19 21:07:43;;;;;;;31.77;24.63;;;;;;;26.62;63.18;100186.72;4867388;60;1143497;-65
2022/08/19 21:12:52;;;;;;;37.38;26.25;;;;;;;26.54;63.53;100189.26;4893485;59;1143401;-64
2022/08/19 21:17:58;;;;;;;32.63;24.77;;;;;;;26.53;63.94;100201.69;4852677;59;1143813;-65
2022/08/19 21:23:10;;;;;;;33.33;24.20;;;;;;;26.50;64.14;100192.66;5003945;58;1143757;-65
2022/08/19 21:28:16;;;;;;;30.97;25.23;;;;;;;26.42;64.63;100182.14;5031810;58;1143181;-65
2022/08/19 21:33:24;;;;;;;34.98;26.48;;;;;;;26.33;65.09;100191.64;5027985;57;1143447;-65
2022/08/19 21:38:30;;;;;;;31.73;25.57;;;;;;;26.21;65.43;100190.21;5073392;57;1143392;-65
2022/08/19 21:43:38;;;;;;;35.50;24.23;;;;;;;26.11;66.09;100195.36;5082730;57;1143164;-62
2022/08/19 21:48:44;;;;;;;35.98;26.37;;;;;;;26.06;66.58;100197.91;5103005;57;1143228;-64
2022/08/19 21:53:50;;;;;;;40.55;26.20;;;;;;;26.03;66.85;100183.45;5099315;57;1143186;-64
2022/08/19 21:58:55;;;;;;;39.58;26.65;;;;;;;26.02;66.96;100191.29;5195668;56;1143062;-64
2022/08/19 22:04:02;;;;;;;27.70;24.67;;;;;;;26.02;67.16;100202.95;5209404;56;1143207;-64
2022/08/19 22:09:08;;;;;;;31.33;25.43;;;;;;;26.04;67.25;100213.05;5241432;56;1143187;-63
2022/08/19 22:14:14;;;;;;;34.58;26.85;;;;;;;26.05;67.18;100197.61;5241383;56;1143516;-65
2022/08/19 22:19:21;;;;;;;34.00;25.37;;;;;;;26.07;67.36;100197.69;5241388;56;1143163;-62
2022/08/19 22:24:28;;;;;;;37.60;27.10;;;;;;;26.06;67.74;100184.37;5241137;56;1143946;-62
2022/08/19 22:29:35;;;;;;;30.70;23.92;;;;;;;25.96;68.54;100167.83;5241371;56;1143290;-64
2022/08/19 22:34:42;;;;;;;34.08;23.75;;;;;;;25.84;69.09;100164.50;5241301;56;1143253;-65
2022/08/19 22:39:48;;;;;;;30.40;25.23;;;;;;;25.73;69.68;100164.44;5197468;56;1141115;-66
2022/08/19 22:44:57;;;;;;;41.75;27.00;;;;;;;25.66;70.57;100172.67;5241439;56;1141068;-62
2022/08/19 22:50:06;;;;;;;31.90;24.05;;;;;;;25.58;71.02;100173.74;5241403;56;1141061;-64
2022/08/19 22:55:14;;;;;;;26.75;23.70;;;;;;;25.59;70.94;100177.28;5159733;56;1141166;-65
2022/08/19 23:00:21;;;;;;;30.65;23.70;;;;;;;25.72;71.23;100173.09;5189297;56;1141326;-63
2022/08/19 23:05:29;;;;;;;30.92;27.07;;;;;;;25.79;71.30;100175.74;5201804;56;1141102;-64
2022/08/19 23:10:34;;;;;;;27.67;24.82;;;;;;;25.77;71.36;100179.20;5234385;56;1141145;-63
2022/08/19 23:15:41;;;;;;;30.43;24.82;;;;;;;25.80;71.60;100182.81;5155457;57;1141154;-63
2022/08/19 23:20:47;;;;;;;32.70;26.23;;;;;;;25.79;71.66;100184.70;5186994;56;1141226;-62
2022/08/19 23:25:56;;;;;;;28.80;23.47;;;;;;;25.71;71.82;100186.34;5241877;56;1141109;-62
2022/08/19 23:31:04;;;;;;;28.33;24.50;;;;;;;25.69;72.27;100181.67;5242221;56;1141036;-65
2022/08/19 23:36:13;;;;;;;37.40;27.00;;;;;;;25.55;72.81;100195.86;5241878;56;1141522;-63
2022/08/19 23:41:22;;;;;;;32.03;26.07;;;;;;;25.55;73.51;100203.15;5164847;56;1141255;-63